Terminal Aerodrome Forecast
Issued by NWS

Home | Current Version | Previous Version | Text Only | Print | Product List | Glossary Off
Versions: 1 2 3 4 5 6 7 8 9 10 11 12 13 14 15 16 17 18 19

420
FTUS43 KGRB 241124
TAFCWA
TAF
KCWA 241124Z 2412/2512 36007KT 5SM BR SCT005 OVC010
      TEMPO 2412/2414 2SM -SHRA BR OVC005
     FM241400 04007KT P6SM OVC010
     FM241900 05008KT P6SM BKN025
     FM250900 02003KT 5SM BR OVC008=

USA.gov is the U.S. government's official web portal to all federal, state and local government web resources and services.